createdAt,value
2018-12-17T00:01:20.990Z,17.10
2018-12-17T00:03:48.614Z,18.67
2018-12-17T00:06:16.209Z,19.10
2018-12-17T00:08:43.870Z,18.03
2018-12-17T00:11:11.680Z,18.67
2018-12-17T00:13:39.193Z,20.30
2018-12-17T00:16:06.994Z,19.67
2018-12-17T00:18:34.525Z,19.00
2018-12-17T00:21:02.159Z,19.20
2018-12-17T00:23:29.821Z,18.27
2018-12-17T00:25:57.494Z,17.83
2018-12-17T00:28:25.214Z,16.70
2018-12-17T00:30:52.718Z,17.00
2018-12-17T00:33:20.271Z,17.50
2018-12-17T00:35:48.088Z,16.83
2018-12-17T00:38:15.624Z,16.43
2018-12-17T00:40:43.356Z,16.20
2018-12-17T00:43:10.889Z,14.67
2018-12-17T00:45:38.464Z,13.93
2018-12-17T00:48:05.989Z,12.97
2018-12-17T00:50:33.638Z,13.27
2018-12-17T00:53:01.169Z,11.67
2018-12-17T00:55:28.712Z,13.23
2018-12-17T00:57:56.426Z,15.03
2018-12-17T01:00:23.965Z,15.13
2018-12-17T01:02:51.599Z,14.00
2018-12-17T01:05:19.265Z,14.10
2018-12-17T01:07:46.840Z,14.80
2018-12-17T01:10:14.388Z,14.00
2018-12-17T01:12:41.944Z,12.87
2018-12-17T01:15:09.660Z,12.30
2018-12-17T01:17:37.455Z,13.20
2018-12-17T01:20:05.973Z,12.73
2018-12-17T01:22:33.616Z,14.50
2018-12-17T01:25:01.229Z,16.53
2018-12-17T01:27:28.939Z,16.27
2018-12-17T01:29:56.843Z,15.70
2018-12-17T01:32:24.504Z,17.00
2018-12-17T01:34:52.026Z,15.37
2018-12-17T01:37:19.651Z,15.50
2018-12-17T01:39:47.188Z,13.37
2018-12-17T01:42:14.716Z,14.10
2018-12-17T01:44:42.550Z,14.20
2018-12-17T01:47:10.088Z,13.30
2018-12-17T01:49:37.843Z,14.60
2018-12-17T01:52:05.396Z,14.13
2018-12-17T01:54:32.965Z,15.23
2018-12-17T01:57:00.570Z,16.63
2018-12-17T01:59:28.119Z,16.43
2018-12-17T02:01:55.831Z,17.20
2018-12-17T02:04:23.393Z,18.07
2018-12-17T02:06:50.938Z,16.57
2018-12-17T02:09:18.461Z,14.80
2018-12-17T02:11:46.113Z,14.20
2018-12-17T02:14:13.777Z,15.07
2018-12-17T02:16:41.505Z,14.57
2018-12-17T02:19:09.230Z,13.43
2018-12-17T02:21:36.738Z,12.77
2018-12-17T02:24:04.686Z,14.07
2018-12-17T02:26:32.504Z,13.27
2018-12-17T02:29:00.013Z,12.47
2018-12-17T02:31:27.599Z,11.53
2018-12-17T02:33:55.129Z,11.63
2018-12-17T02:36:22.809Z,11.10
2018-12-17T02:38:50.328Z,11.07
2018-12-17T02:41:18.398Z,11.87
2018-12-17T02:43:46.073Z,11.63
2018-12-17T02:46:14.030Z,11.57
2018-12-17T02:48:41.591Z,11.37
2018-12-17T02:51:09.274Z,10.53
2018-12-17T02:53:36.922Z,9.60
2018-12-17T02:56:04.789Z,10.87
2018-12-17T02:58:32.370Z,11.50
2018-12-17T03:01:00.109Z,11.40
2018-12-17T03:03:27.975Z,11.43
2018-12-17T03:05:55.943Z,12.23
2018-12-17T03:08:23.463Z,12.17
2018-12-17T03:10:51.060Z,12.00
2018-12-17T03:13:18.589Z,10.93
2018-12-17T03:15:46.155Z,10.20
2018-12-17T03:18:13.692Z,9.87
2018-12-17T03:20:41.266Z,11.00
2018-12-17T03:23:08.969Z,10.93
2018-12-17T03:25:36.881Z,11.70
2018-12-17T03:28:04.425Z,11.03
2018-12-17T03:30:32.362Z,11.40
2018-12-17T03:33:00.222Z,11.50
2018-12-17T03:35:27.819Z,11.20
2018-12-17T03:37:55.353Z,10.70
2018-12-17T03:40:22.984Z,10.10
2018-12-17T03:42:50.771Z,10.17
2018-12-17T03:45:18.309Z,10.07
2018-12-17T03:47:45.812Z,9.60
2018-12-17T03:50:13.441Z,9.57
2018-12-17T03:52:40.996Z,10.23
2018-12-17T03:55:08.683Z,10.43
2018-12-17T03:57:36.489Z,10.30
2018-12-17T04:00:06.033Z,10.63
2018-12-17T04:02:33.780Z,9.47
2018-12-17T04:05:01.715Z,10.27
2018-12-17T04:07:29.294Z,9.23
2018-12-17T04:09:56.930Z,9.00
2018-12-17T04:12:24.646Z,8.43
2018-12-17T04:14:52.167Z,8.97
2018-12-17T04:17:19.719Z,9.63
2018-12-17T04:19:47.331Z,9.80
2018-12-17T04:22:14.934Z,8.53
2018-12-17T04:24:42.539Z,8.60
2018-12-17T04:27:10.065Z,9.73
2018-12-17T04:29:37.684Z,9.37
2018-12-17T04:32:05.249Z,10.57
2018-12-17T04:34:32.910Z,9.70
2018-12-17T04:37:00.454Z,10.50
2018-12-17T04:39:28.178Z,9.27
2018-12-17T04:41:55.970Z,9.20
2018-12-17T04:44:23.848Z,9.37
2018-12-17T04:46:51.466Z,9.40
2018-12-17T04:49:19.022Z,9.23
2018-12-17T04:51:46.689Z,10.13
2018-12-17T04:54:14.336Z,9.63
2018-12-17T04:56:41.854Z,10.43
2018-12-17T04:59:14.518Z,10.57
2018-12-17T05:01:39.038Z,10.23
2018-12-17T05:04:06.600Z,11.23
2018-12-17T05:06:34.193Z,10.50
2018-12-17T05:09:01.746Z,9.47
2018-12-17T05:11:29.695Z,8.80
2018-12-17T05:13:57.484Z,9.80
2018-12-17T05:16:25.226Z,9.20
2018-12-17T05:18:52.912Z,8.57
2018-12-17T05:21:20.754Z,8.40
2018-12-17T05:23:48.431Z,8.80
2018-12-17T05:26:16.294Z,8.27
2018-12-17T05:28:43.950Z,8.33
2018-12-17T05:31:11.723Z,8.57
2018-12-17T05:33:39.358Z,9.17
2018-12-17T05:36:07.001Z,9.50
2018-12-17T05:38:34.595Z,8.30
2018-12-17T05:41:02.415Z,7.60
2018-12-17T05:43:29.948Z,7.70
2018-12-17T05:45:57.627Z,7.47
2018-12-17T05:48:25.294Z,8.13
2018-12-17T05:50:52.851Z,7.63
2018-12-17T05:53:20.546Z,8.37
2018-12-17T05:55:48.255Z,8.07
2018-12-17T05:58:16.039Z,6.43
2018-12-17T06:00:43.621Z,6.63
2018-12-17T06:03:11.169Z,7.37
2018-12-17T06:05:38.685Z,7.70
2018-12-17T06:08:06.231Z,7.73
2018-12-17T06:10:34.173Z,7.17
2018-12-17T06:13:01.800Z,6.83
2018-12-17T06:15:29.594Z,7.40
2018-12-17T06:17:57.294Z,7.53
2018-12-17T06:20:25.094Z,7.70
2018-12-17T06:22:52.663Z,6.97
2018-12-17T06:25:20.285Z,6.73
2018-12-17T06:27:48.035Z,7.17
2018-12-17T06:30:15.589Z,6.63
2018-12-17T06:32:43.122Z,6.13
2018-12-17T06:35:10.951Z,6.67
2018-12-17T06:37:38.769Z,8.13
2018-12-17T06:40:10.150Z,7.53
2018-12-17T06:42:36.605Z,7.97
2018-12-17T06:45:05.549Z,7.33
2018-12-17T06:47:33.126Z,8.87
2018-12-17T06:50:00.928Z,9.67
2018-12-17T06:52:28.701Z,10.50
2018-12-17T06:54:56.357Z,10.40
2018-12-17T06:57:24.369Z,10.57
2018-12-17T06:59:52.084Z,10.33
2018-12-17T07:02:19.740Z,10.23
2018-12-17T07:04:47.273Z,8.73
2018-12-17T07:07:14.967Z,9.30
2018-12-17T07:09:42.518Z,11.17
2018-12-17T07:12:10.304Z,11.37
2018-12-17T07:14:38.090Z,11.33
2018-12-17T07:17:05.716Z,11.37
2018-12-17T07:19:33.355Z,11.20
2018-12-17T07:22:00.907Z,11.13
2018-12-17T07:24:28.496Z,11.40
2018-12-17T07:26:56.205Z,10.57
2018-12-17T07:29:23.782Z,12.07
2018-12-17T07:31:51.806Z,11.90
2018-12-17T07:34:20.079Z,9.87
2018-12-17T07:36:47.642Z,10.10
2018-12-17T07:39:15.983Z,9.93
2018-12-17T07:41:43.775Z,9.97
2018-12-17T07:44:11.300Z,10.37
2018-12-17T07:46:39.040Z,9.40
2018-12-17T07:49:06.654Z,11.23
2018-12-17T07:51:34.168Z,10.10
2018-12-17T07:54:01.744Z,10.27
2018-12-17T07:56:29.339Z,10.30
2018-12-17T07:58:56.909Z,10.23
2018-12-17T08:01:24.579Z,10.47
2018-12-17T08:03:52.419Z,10.30
2018-12-17T08:06:19.967Z,9.87
2018-12-17T08:08:47.727Z,9.97
2018-12-17T08:11:15.471Z,10.00
2018-12-17T08:13:43.212Z,12.33
2018-12-17T08:16:10.910Z,11.90
2018-12-17T08:18:38.463Z,11.37
2018-12-17T08:21:05.982Z,10.03
2018-12-17T08:23:33.519Z,10.10
2018-12-17T08:26:01.246Z,9.63
2018-12-17T08:28:29.049Z,11.27
2018-12-17T08:30:56.661Z,12.23
2018-12-17T08:33:24.229Z,12.00
2018-12-17T08:35:51.814Z,11.03
2018-12-17T08:38:19.350Z,12.00
2018-12-17T08:40:46.906Z,12.30
2018-12-17T08:43:14.882Z,13.20
2018-12-17T08:45:42.529Z,13.57
2018-12-17T08:48:10.066Z,10.50
2018-12-17T08:50:37.661Z,11.03
2018-12-17T08:53:05.448Z,12.00
2018-12-17T08:55:33.175Z,11.22
2018-12-17T08:58:00.992Z,10.90
2018-12-17T09:00:28.546Z,10.60
2018-12-17T09:02:56.311Z,10.80
2018-12-17T09:05:23.829Z,14.57
2018-12-17T09:07:51.367Z,21.70
2018-12-17T09:10:19.088Z,11.90
2018-12-17T09:12:46.642Z,9.17
2018-12-17T09:15:14.177Z,11.83
2018-12-17T09:17:41.809Z,10.90
2018-12-17T09:20:09.470Z,12.17
2018-12-17T09:22:37.024Z,11.30
2018-12-17T09:25:05.387Z,10.70
2018-12-17T09:27:32.972Z,10.17
2018-12-17T09:30:00.505Z,9.90
2018-12-17T09:32:28.080Z,9.60
2018-12-17T09:34:55.726Z,10.00
2018-12-17T09:37:23.427Z,10.23
2018-12-17T09:39:51.291Z,12.27
2018-12-17T09:42:19.078Z,10.17
2018-12-17T09:44:46.953Z,9.90
2018-12-17T09:47:14.832Z,10.63
2018-12-17T09:49:42.395Z,11.73
2018-12-17T09:52:09.954Z,7.90
2018-12-17T09:54:37.822Z,9.37
2018-12-17T09:57:05.818Z,9.70
2018-12-17T09:59:33.378Z,8.20
2018-12-17T10:02:01.198Z,6.90
2018-12-17T10:04:28.902Z,5.90
2018-12-17T10:06:56.626Z,5.43
2018-12-17T10:09:24.417Z,4.50
2018-12-17T10:11:52.115Z,5.07
2018-12-17T10:14:19.941Z,6.30
2018-12-17T10:16:47.740Z,5.17
2018-12-17T10:19:15.450Z,4.80
2018-12-17T10:21:43.123Z,5.17
2018-12-17T10:24:10.710Z,1.80
2018-12-17T10:26:42.039Z,1.60
2018-12-17T10:29:09.636Z,1.40
2018-12-17T10:31:37.182Z,1.27
2018-12-17T10:34:04.766Z,1.23
2018-12-17T10:36:32.772Z,1.00
2018-12-17T10:39:00.347Z,0.90
2018-12-17T10:41:27.891Z,1.23
2018-12-17T10:43:55.482Z,2.47
2018-12-17T10:46:23.230Z,1.70
2018-12-17T10:48:50.905Z,2.93
2018-12-17T10:51:18.632Z,1.40
2018-12-17T10:53:46.171Z,1.60
2018-12-17T10:56:13.706Z,1.40
2018-12-17T10:58:41.296Z,1.40
2018-12-17T11:01:14.646Z,1.50
2018-12-17T11:03:43.172Z,1.10
2018-12-17T11:06:11.658Z,0.83
2018-12-17T11:08:39.255Z,1.40
2018-12-17T11:11:06.785Z,1.00
2018-12-17T11:13:34.466Z,1.10
2018-12-17T11:16:02.224Z,1.50
2018-12-17T11:18:29.801Z,1.23
2018-12-17T11:20:57.504Z,0.97
2018-12-17T11:23:25.126Z,1.40
2018-12-17T11:25:52.760Z,1.40
2018-12-17T11:28:20.471Z,1.17
2018-12-17T11:30:48.174Z,1.70
2018-12-17T11:33:16.017Z,1.67
2018-12-17T11:35:43.884Z,1.90
2018-12-17T11:38:11.679Z,1.70
2018-12-17T11:40:39.380Z,1.20
2018-12-17T11:43:07.062Z,1.40
2018-12-17T11:45:34.811Z,1.73
2018-12-17T11:48:02.397Z,1.87
2018-12-17T11:50:29.996Z,1.90
2018-12-17T11:52:57.522Z,1.30
2018-12-17T11:55:25.045Z,2.03
2018-12-17T11:58:09.098Z,1.70
2018-12-17T12:00:36.882Z,1.97
2018-12-17T12:03:04.632Z,1.93
2018-12-17T12:05:32.365Z,2.20
2018-12-17T12:07:59.941Z,2.17
2018-12-17T12:10:27.500Z,2.30
2018-12-17T12:12:55.273Z,2.27
2018-12-17T12:15:22.882Z,2.27
2018-12-17T12:17:50.459Z,2.27
2018-12-17T12:20:18.217Z,5.23
2018-12-17T12:22:45.741Z,2.87
2018-12-17T12:25:13.596Z,2.07
2018-12-17T12:27:41.197Z,2.03
2018-12-17T12:30:09.858Z,2.23
2018-12-17T12:32:37.435Z,2.80
2018-12-17T12:35:07.131Z,2.67
2018-12-17T12:37:34.821Z,2.63
2018-12-17T12:40:02.501Z,2.50
2018-12-17T12:42:30.063Z,2.43
2018-12-17T12:44:57.816Z,3.57
2018-12-17T12:47:25.375Z,3.00
2018-12-17T12:49:53.222Z,3.17
2018-12-17T12:52:20.899Z,4.00
2018-12-17T12:54:48.557Z,4.73
2018-12-17T12:57:16.285Z,2.53
2018-12-17T12:59:43.815Z,3.83
2018-12-17T13:02:11.370Z,2.63
2018-12-17T13:04:39.089Z,4.17
2018-12-17T13:07:06.690Z,2.80
2018-12-17T13:09:34.442Z,4.57
2018-12-17T13:12:02.022Z,3.50
2018-12-17T13:14:30.043Z,3.40
2018-12-17T13:16:57.568Z,2.10
2018-12-17T13:19:25.266Z,2.93
2018-12-17T13:21:53.517Z,3.13
2018-12-17T13:24:21.043Z,3.70
2018-12-17T13:26:48.601Z,3.10
2018-12-17T13:29:17.077Z,3.20
2018-12-17T13:31:44.786Z,2.87
2018-12-17T13:34:12.306Z,4.50
2018-12-17T13:36:40.093Z,4.47
2018-12-17T13:39:07.683Z,4.07
2018-12-17T13:41:35.502Z,2.77
2018-12-17T13:44:03.042Z,5.00
2018-12-17T13:46:30.583Z,5.43
2018-12-17T13:48:58.332Z,4.73
2018-12-17T13:51:31.373Z,4.30
2018-12-17T13:53:59.417Z,4.40
2018-12-17T13:56:27.382Z,3.10
2018-12-17T13:58:55.330Z,3.03
2018-12-17T14:01:22.862Z,4.03
2018-12-17T14:03:50.454Z,3.90
2018-12-17T14:06:17.960Z,3.43
2018-12-17T14:08:45.522Z,3.83
2018-12-17T14:11:13.056Z,3.83
2018-12-17T14:13:40.620Z,4.20
2018-12-17T14:16:14.141Z,4.50
2018-12-17T14:18:47.302Z,4.47
2018-12-17T14:21:20.376Z,4.53
2018-12-17T14:23:48.278Z,4.67
2018-12-17T14:26:16.002Z,4.90
2018-12-17T14:28:43.558Z,4.67
2018-12-17T14:31:11.111Z,4.63
2018-12-17T14:33:38.802Z,4.70
2018-12-17T14:36:09.091Z,4.77
2018-12-17T14:38:36.961Z,5.00
2018-12-17T14:41:04.471Z,5.33
2018-12-17T14:43:32.112Z,5.77
2018-12-17T14:45:59.656Z,5.13
2018-12-17T14:48:27.226Z,5.10
2018-12-17T14:50:54.763Z,5.47
2018-12-17T14:53:22.619Z,5.67
2018-12-17T14:55:50.341Z,5.10
2018-12-17T14:58:17.859Z,5.33
2018-12-17T15:00:45.759Z,5.77
2018-12-17T15:03:13.503Z,6.70
2018-12-17T15:05:41.070Z,6.60
2018-12-17T15:08:08.638Z,6.77
2018-12-17T15:10:36.654Z,7.47
2018-12-17T15:13:04.209Z,6.83
2018-12-17T15:15:31.778Z,9.43
2018-12-17T15:17:59.354Z,6.30
2018-12-17T15:20:26.947Z,5.27
2018-12-17T15:22:55.069Z,6.40
2018-12-17T15:25:22.723Z,5.80
2018-12-17T15:27:50.455Z,7.30
2018-12-17T15:30:18.209Z,7.10
2018-12-17T15:32:45.926Z,5.80
2018-12-17T15:35:13.809Z,7.20
2018-12-17T15:37:41.364Z,5.10
2018-12-17T15:40:08.959Z,5.23
2018-12-17T15:42:40.781Z,5.67
2018-12-17T15:45:06.463Z,6.63
2018-12-17T15:47:34.133Z,6.67
2018-12-17T15:50:01.698Z,6.10
2018-12-17T15:52:29.266Z,5.83
2018-12-17T15:54:56.813Z,5.83
2018-12-17T15:57:24.680Z,6.03
2018-12-17T15:59:52.576Z,5.60
2018-12-17T16:02:20.167Z,3.97
2018-12-17T16:04:47.945Z,5.03
2018-12-17T16:07:15.519Z,4.37
2018-12-17T16:09:43.066Z,5.40
2018-12-17T16:12:11.262Z,6.00
2018-12-17T16:14:39.365Z,7.83
2018-12-17T16:17:07.099Z,8.33
2018-12-17T16:19:34.870Z,8.17
2018-12-17T16:22:02.505Z,6.60
2018-12-17T16:24:30.252Z,6.13
2018-12-17T16:26:57.816Z,7.73
2018-12-17T16:29:25.402Z,7.40
2018-12-17T16:31:57.211Z,6.87
2018-12-17T16:34:22.863Z,7.00
2018-12-17T16:36:51.424Z,6.93
2018-12-17T16:39:19.011Z,6.73
2018-12-17T16:41:46.581Z,6.60
2018-12-17T16:44:14.327Z,12.00
2018-12-17T16:46:41.896Z,10.97
2018-12-17T16:49:09.456Z,9.20
2018-12-17T16:51:37.239Z,9.00
2018-12-17T16:54:04.907Z,9.67
2018-12-17T16:56:32.623Z,7.93
2018-12-17T16:59:00.324Z,7.67
2018-12-17T17:01:28.241Z,7.17
2018-12-17T17:03:55.893Z,7.13
2018-12-17T17:06:23.433Z,6.90
2018-12-17T17:08:51.217Z,6.90
2018-12-17T17:11:18.852Z,10.77
2018-12-17T17:13:46.462Z,12.57
2018-12-17T17:16:14.219Z,12.50
2018-12-17T17:18:42.067Z,15.73
2018-12-17T17:21:09.633Z,20.27
2018-12-17T17:23:37.248Z,15.13
2018-12-17T17:26:04.818Z,13.60
2018-12-17T17:28:32.559Z,16.60
2018-12-17T17:31:00.403Z,14.00
2018-12-17T17:33:27.975Z,13.33
2018-12-17T17:35:55.618Z,12.33
2018-12-17T17:38:23.448Z,9.53
2018-12-17T17:40:51.296Z,9.10
2018-12-17T17:43:19.111Z,8.63
2018-12-17T17:45:46.842Z,8.67
2018-12-17T17:48:14.501Z,13.70
2018-12-17T17:50:42.259Z,13.80
2018-12-17T17:53:09.819Z,15.83
2018-12-17T17:55:37.902Z,14.93
2018-12-17T17:58:05.491Z,9.07
2018-12-17T18:00:33.378Z,8.20
2018-12-17T18:03:01.123Z,8.73
2018-12-17T18:05:28.868Z,35.63
2018-12-17T18:07:56.622Z,47.87
2018-12-17T18:10:24.222Z,18.57
2018-12-17T18:12:51.754Z,10.87
2018-12-17T18:15:19.446Z,10.67
2018-12-17T18:17:47.002Z,12.77
2018-12-17T18:20:14.663Z,14.23
2018-12-17T18:22:42.636Z,15.23
2018-12-17T18:25:10.184Z,18.47
2018-12-17T18:27:37.779Z,16.37
2018-12-17T18:30:06.173Z,15.85
2018-12-17T18:32:33.797Z,26.42
2018-12-17T18:35:01.358Z,23.57
2018-12-17T18:37:29.188Z,22.87
2018-12-17T18:39:56.774Z,16.63
2018-12-17T18:42:24.359Z,14.83
2018-12-17T18:44:51.981Z,14.10
2018-12-17T18:47:25.806Z,13.70
2018-12-17T18:49:49.370Z,12.47
2018-12-17T18:52:16.961Z,11.30
2018-12-17T18:54:44.916Z,11.83
2018-12-17T18:57:12.454Z,9.37
2018-12-17T18:59:40.018Z,8.70
2018-12-17T19:02:07.797Z,9.77
2018-12-17T19:04:35.643Z,10.70
2018-12-17T19:07:03.858Z,13.37
2018-12-17T19:09:31.578Z,13.13
2018-12-17T19:11:59.124Z,14.47
2018-12-17T19:14:27.043Z,20.40
2018-12-17T19:16:54.940Z,22.07
2018-12-17T19:19:22.550Z,21.07
2018-12-17T19:21:50.102Z,17.77
2018-12-17T19:24:17.693Z,15.07
2018-12-17T19:26:45.383Z,11.30
2018-12-17T19:29:13.188Z,9.73
2018-12-17T19:31:40.894Z,9.23
2018-12-17T19:34:08.469Z,10.90
2018-12-17T19:36:36.016Z,12.13
2018-12-17T19:39:05.697Z,16.00
2018-12-17T19:41:33.412Z,17.83
2018-12-17T19:44:01.133Z,20.03
2018-12-17T19:46:28.682Z,19.20
2018-12-17T19:48:56.214Z,18.33
2018-12-17T19:51:23.987Z,16.63
2018-12-17T19:53:51.742Z,18.03
2018-12-17T19:56:19.438Z,41.73
2018-12-17T19:58:47.158Z,33.60
2018-12-17T20:01:14.809Z,32.57
2018-12-17T20:03:42.534Z,30.87
2018-12-17T20:06:10.060Z,23.60
2018-12-17T20:08:37.717Z,20.03
2018-12-17T20:11:05.374Z,21.23
2018-12-17T20:13:33.193Z,18.47
2018-12-17T20:16:00.731Z,18.27
2018-12-17T20:18:28.430Z,21.57
2018-12-17T20:20:56.025Z,22.27
2018-12-17T20:23:23.799Z,20.47
2018-12-17T20:25:51.357Z,22.07
2018-12-17T20:28:19.139Z,24.00
2018-12-17T20:30:47.014Z,22.53
2018-12-17T20:33:14.667Z,21.93
2018-12-17T20:35:42.684Z,24.07
2018-12-17T20:38:10.354Z,24.73
2018-12-17T20:40:38.163Z,23.33
2018-12-17T20:43:05.782Z,24.00
2018-12-17T20:45:33.504Z,23.17
2018-12-17T20:48:01.106Z,24.50
2018-12-17T20:50:28.687Z,25.17
2018-12-17T20:52:56.324Z,23.80
2018-12-17T20:55:30.394Z,21.70
2018-12-17T20:57:53.534Z,24.33
2018-12-17T21:00:21.300Z,26.70
2018-12-17T21:02:48.893Z,25.97
2018-12-17T21:05:16.813Z,27.80
2018-12-17T21:07:44.644Z,26.80
2018-12-17T21:10:12.370Z,26.60
2018-12-17T21:12:39.882Z,28.33
2018-12-17T21:15:07.770Z,26.80
2018-12-17T21:17:35.459Z,29.17
2018-12-17T21:20:03.409Z,29.33
2018-12-17T21:22:31.029Z,30.00
2018-12-17T21:24:58.821Z,28.70
2018-12-17T21:27:26.462Z,27.47
2018-12-17T21:29:54.102Z,27.13
2018-12-17T21:32:21.824Z,25.93
2018-12-17T21:34:49.689Z,24.30
2018-12-17T21:37:17.403Z,22.57
2018-12-17T21:39:45.423Z,22.00
2018-12-17T21:42:12.939Z,21.70
2018-12-17T21:44:40.664Z,23.63
2018-12-17T21:47:08.189Z,22.47
2018-12-17T21:49:35.763Z,21.80
2018-12-17T21:52:03.333Z,21.53
2018-12-17T21:54:30.906Z,21.63
2018-12-17T21:56:58.544Z,21.23
2018-12-17T21:59:26.309Z,19.57
2018-12-17T22:01:54.142Z,20.67
2018-12-17T22:04:21.879Z,20.60
2018-12-17T22:06:49.461Z,22.23
2018-12-17T22:09:17.388Z,21.80
2018-12-17T22:11:45.189Z,19.97
2018-12-17T22:14:12.989Z,20.50
2018-12-17T22:16:40.675Z,17.00
2018-12-17T22:19:08.488Z,17.33
2018-12-17T22:21:36.389Z,16.37
2018-12-17T22:24:04.080Z,16.53
2018-12-17T22:26:31.833Z,15.80
2018-12-17T22:28:59.526Z,15.47
2018-12-17T22:31:27.234Z,14.80
2018-12-17T22:33:54.861Z,14.87
2018-12-17T22:36:22.418Z,16.33
2018-12-17T22:38:49.981Z,18.03
2018-12-17T22:41:17.822Z,18.30
2018-12-17T22:43:45.541Z,17.83
2018-12-17T22:46:13.122Z,17.80
2018-12-17T22:48:40.712Z,16.00
2018-12-17T22:51:08.355Z,14.40
2018-12-17T22:53:35.916Z,15.23
2018-12-17T22:56:03.445Z,15.70
2018-12-17T22:58:31.008Z,15.63
2018-12-17T23:00:58.980Z,15.43
2018-12-17T23:03:26.659Z,16.23
2018-12-17T23:05:54.206Z,15.20
2018-12-17T23:08:21.737Z,15.60
2018-12-17T23:11:01.122Z,16.00
2018-12-17T23:13:40.606Z,14.93
2018-12-17T23:16:20.051Z,13.57
2018-12-17T23:18:47.246Z,13.63
2018-12-17T23:21:15.071Z,14.30
2018-12-17T23:23:42.790Z,14.17
2018-12-17T23:26:10.496Z,13.07
2018-12-17T23:28:38.015Z,11.67
2018-12-17T23:31:05.580Z,10.63
2018-12-17T23:33:33.311Z,11.63
2018-12-17T23:36:01.046Z,9.87
2018-12-17T23:38:28.672Z,9.57
2018-12-17T23:40:56.281Z,10.23
2018-12-17T23:43:23.799Z,9.33
2018-12-17T23:45:51.450Z,9.50
2018-12-17T23:48:19.030Z,9.27
2018-12-17T23:50:46.812Z,9.53
2018-12-17T23:53:14.348Z,9.50
2018-12-17T23:55:41.911Z,9.37
2018-12-17T23:58:09.430Z,10.30
